sensor_id;sensor_type;location;lat;lon;timestamp;temperature;humidity
49531;DHT22;74875;30.696;104.060;2024-02-04T00:00:43;15.70;56.40
49531;DHT22;74875;30.696;104.060;2024-02-04T00:03:11;15.70;56.40
49531;DHT22;74875;30.696;104.060;2024-02-04T00:05:38;15.70;56.50
49531;DHT22;74875;30.696;104.060;2024-02-04T00:08:05;15.70;56.50
49531;DHT22;74875;30.696;104.060;2024-02-04T00:10:32;15.70;56.50
49531;DHT22;74875;30.696;104.060;2024-02-04T00:12:59;15.90;56.60
49531;DHT22;74875;30.696;104.060;2024-02-04T00:15:26;15.10;56.20
49531;DHT22;74875;30.696;104.060;2024-02-04T00:17:53;15.80;71.30
49531;DHT22;74875;30.696;104.060;2024-02-04T00:20:21;15.70;72.90
49531;DHT22;74875;30.696;104.060;2024-02-04T00:22:50;15.70;66.20
49531;DHT22;74875;30.696;104.060;2024-02-04T00:25:17;15.70;56.60
49531;DHT22;74875;30.696;104.060;2024-02-04T00:27:45;15.70;71.60
49531;DHT22;74875;30.696;104.060;2024-02-04T00:30:12;15.60;62.40
49531;DHT22;74875;30.696;104.060;2024-02-04T00:32:39;15.80;63.80
49531;DHT22;74875;30.696;104.060;2024-02-04T00:35:07;15.70;73.10
49531;DHT22;74875;30.696;104.060;2024-02-04T00:37:35;15.70;73.00
49531;DHT22;74875;30.696;104.060;2024-02-04T00:40:02;15.20;71.90
49531;DHT22;74875;30.696;104.060;2024-02-04T00:42:30;15.70;56.90
49531;DHT22;74875;30.696;104.060;2024-02-04T00:44:57;15.90;71.60
49531;DHT22;74875;30.696;104.060;2024-02-04T00:47:24;15.80;72.00
49531;DHT22;74875;30.696;104.060;2024-02-04T00:49:52;15.80;59.50
49531;DHT22;74875;30.696;104.060;2024-02-04T00:52:20;15.70;56.90
49531;DHT22;74875;30.696;104.060;2024-02-04T00:54:47;15.40;70.00
49531;DHT22;74875;30.696;104.060;2024-02-04T00:57:14;15.80;72.00
49531;DHT22;74875;30.696;104.060;2024-02-04T00:59:41;15.70;57.00
49531;DHT22;74875;30.696;104.060;2024-02-04T01:02:08;15.70;56.90
49531;DHT22;74875;30.696;104.060;2024-02-04T01:04:36;15.60;66.40
49531;DHT22;74875;30.696;104.060;2024-02-04T01:07:03;15.70;72.10
49531;DHT22;74875;30.696;104.060;2024-02-04T01:09:30;15.80;72.10
49531;DHT22;74875;30.696;104.060;2024-02-04T01:11:58;15.30;71.90
49531;DHT22;74875;30.696;104.060;2024-02-04T01:14:25;15.80;71.70
49531;DHT22;74875;30.696;104.060;2024-02-04T01:16:52;15.40;71.50
49531;DHT22;74875;30.696;104.060;2024-02-04T01:19:19;15.40;57.20
49531;DHT22;74875;30.696;104.060;2024-02-04T01:21:48;15.70;56.80
49531;DHT22;74875;30.696;104.060;2024-02-04T01:24:15;15.40;72.60
49531;DHT22;74875;30.696;104.060;2024-02-04T01:26:42;15.70;67.20
49531;DHT22;74875;30.696;104.060;2024-02-04T01:29:09;15.80;56.80
49531;DHT22;74875;30.696;104.060;2024-02-04T01:31:37;15.70;71.90
49531;DHT22;74875;30.696;104.060;2024-02-04T01:34:04;15.50;70.90
49531;DHT22;74875;30.696;104.060;2024-02-04T01:36:31;15.80;56.80
49531;DHT22;74875;30.696;104.060;2024-02-04T01:38:58;15.80;73.30
49531;DHT22;74875;30.696;104.060;2024-02-04T01:41:26;15.80;71.70
49531;DHT22;74875;30.696;104.060;2024-02-04T01:43:54;15.60;71.50
49531;DHT22;74875;30.696;104.060;2024-02-04T01:46:21;15.80;69.30
49531;DHT22;74875;30.696;104.060;2024-02-04T01:48:49;16.00;56.60
49531;DHT22;74875;30.696;104.060;2024-02-04T01:51:18;16.30;71.40
49531;DHT22;74875;30.696;104.060;2024-02-04T01:53:46;16.60;71.30
49531;DHT22;74875;30.696;104.060;2024-02-04T01:56:15;16.30;70.70
49531;DHT22;74875;30.696;104.060;2024-02-04T01:58:43;16.50;67.00
49531;DHT22;74875;30.696;104.060;2024-02-04T02:01:15;16.40;70.50
49531;DHT22;74875;30.696;104.060;2024-02-04T02:03:42;16.20;69.40
49531;DHT22;74875;30.696;104.060;2024-02-04T02:06:09;16.60;70.90
49531;DHT22;74875;30.696;104.060;2024-02-04T02:08:37;16.10;57.50
49531;DHT22;74875;30.696;104.060;2024-02-04T02:11:23;16.40;66.90
49531;DHT22;74875;30.696;104.060;2024-02-04T02:14:00;15.90;54.60
49531;DHT22;74875;30.696;104.060;2024-02-04T02:16:31;16.40;70.10
49531;DHT22;74875;30.696;104.060;2024-02-04T02:22:15;17.20;71.00
49531;DHT22;74875;30.696;104.060;2024-02-04T02:24:47;17.30;70.90
49531;DHT22;74875;30.696;104.060;2024-02-04T02:27:16;16.50;69.30
49531;DHT22;74875;30.696;104.060;2024-02-04T02:29:43;16.60;54.90
49531;DHT22;74875;30.696;104.060;2024-02-04T02:32:10;16.60;54.70
49531;DHT22;74875;30.696;104.060;2024-02-04T02:34:37;16.70;58.50
49531;DHT22;74875;30.696;104.060;2024-02-04T02:37:22;16.70;54.90
49531;DHT22;74875;30.696;104.060;2024-02-04T02:39:58;16.80;54.60
49531;DHT22;74875;30.696;104.060;2024-02-04T02:42:28;16.60;70.40
49531;DHT22;74875;30.696;104.060;2024-02-04T02:44:56;17.00;70.20
49531;DHT22;74875;30.696;104.060;2024-02-04T02:47:24;17.10;69.70
49531;DHT22;74875;30.696;104.060;2024-02-04T02:49:53;17.10;70.00
49531;DHT22;74875;30.696;104.060;2024-02-04T02:52:21;17.00;54.20
49531;DHT22;74875;30.696;104.060;2024-02-04T02:54:49;17.00;64.70
49531;DHT22;74875;30.696;104.060;2024-02-04T02:57:16;16.70;64.70
49531;DHT22;74875;30.696;104.060;2024-02-04T02:59:43;17.00;53.80
49531;DHT22;74875;30.696;104.060;2024-02-04T03:02:11;16.50;68.70
49531;DHT22;74875;30.696;104.060;2024-02-04T03:04:40;17.30;61.90
49531;DHT22;74875;30.696;104.060;2024-02-04T03:07:07;17.20;69.10
49531;DHT22;74875;30.696;104.060;2024-02-04T03:09:34;17.10;67.80
49531;DHT22;74875;30.696;104.060;2024-02-04T03:12:01;17.20;53.30
49531;DHT22;74875;30.696;104.060;2024-02-04T03:14:29;17.00;53.10
49531;DHT22;74875;30.696;104.060;2024-02-04T03:16:56;17.20;54.60
49531;DHT22;74875;30.696;104.060;2024-02-04T03:19:23;17.90;60.70
49531;DHT22;74875;30.696;104.060;2024-02-04T03:21:50;17.20;53.00
49531;DHT22;74875;30.696;104.060;2024-02-04T03:24:17;17.40;67.50
49531;DHT22;74875;30.696;104.060;2024-02-04T03:26:44;17.20;52.90
49531;DHT22;74875;30.696;104.060;2024-02-04T03:29:11;16.90;67.60
49531;DHT22;74875;30.696;104.060;2024-02-04T03:31:41;16.80;67.00
49531;DHT22;74875;30.696;104.060;2024-02-04T03:34:08;17.00;67.30
49531;DHT22;74875;30.696;104.060;2024-02-04T03:36:37;17.70;55.80
49531;DHT22;74875;30.696;104.060;2024-02-04T03:39:07;17.30;67.20
49531;DHT22;74875;30.696;104.060;2024-02-04T03:41:34;17.30;64.10
49531;DHT22;74875;30.696;104.060;2024-02-04T03:46:28;17.10;52.90
49531;DHT22;74875;30.696;104.060;2024-02-04T03:48:55;17.20;67.80
49531;DHT22;74875;30.696;104.060;2024-02-04T03:51:22;16.70;67.90
49531;DHT22;74875;30.696;104.060;2024-02-04T03:53:51;17.10;68.20
49531;DHT22;74875;30.696;104.060;2024-02-04T03:56:18;17.30;67.00
49531;DHT22;74875;30.696;104.060;2024-02-04T03:58:45;17.10;67.30
49531;DHT22;74875;30.696;104.060;2024-02-04T04:01:13;17.10;67.30
49531;DHT22;74875;30.696;104.060;2024-02-04T04:03:41;17.10;52.60
49531;DHT22;74875;30.696;104.060;2024-02-04T04:06:09;16.80;66.30
49531;DHT22;74875;30.696;104.060;2024-02-04T04:08:37;17.30;62.10
49531;DHT22;74875;30.696;104.060;2024-02-04T04:11:04;17.00;60.10
49531;DHT22;74875;30.696;104.060;2024-02-04T04:13:31;17.20;66.60
49531;DHT22;74875;30.696;104.060;2024-02-04T04:16:01;17.10;52.30
49531;DHT22;74875;30.696;104.060;2024-02-04T04:18:28;17.10;52.60
49531;DHT22;74875;30.696;104.060;2024-02-04T04:20:56;17.90;67.80
49531;DHT22;74875;30.696;104.060;2024-02-04T04:23:23;17.40;64.50
49531;DHT22;74875;30.696;104.060;2024-02-04T04:25:50;17.10;67.20
49531;DHT22;74875;30.696;104.060;2024-02-04T04:28:17;17.40;52.70
49531;DHT22;74875;30.696;104.060;2024-02-04T04:30:44;17.10;56.20
49531;DHT22;74875;30.696;104.060;2024-02-04T04:33:11;17.10;52.60
49531;DHT22;74875;30.696;104.060;2024-02-04T04:35:39;17.00;55.40
49531;DHT22;74875;30.696;104.060;2024-02-04T04:38:06;17.00;52.80
49531;DHT22;74875;30.696;104.060;2024-02-04T04:40:33;16.90;67.70
49531;DHT22;74875;30.696;104.060;2024-02-04T04:43:01;16.90;54.00
49531;DHT22;74875;30.696;104.060;2024-02-04T04:45:28;17.00;52.90
49531;DHT22;74875;30.696;104.060;2024-02-04T04:47:55;16.30;68.40
49531;DHT22;74875;30.696;104.060;2024-02-04T04:50:22;16.90;68.90
49531;DHT22;74875;30.696;104.060;2024-02-04T04:52:51;16.50;64.80
49531;DHT22;74875;30.696;104.060;2024-02-04T04:55:19;18.00;68.20
49531;DHT22;74875;30.696;104.060;2024-02-04T04:57:46;16.50;67.00
49531;DHT22;74875;30.696;104.060;2024-02-04T05:00:14;16.90;52.80
49531;DHT22;74875;30.696;104.060;2024-02-04T05:02:41;16.90;52.80
49531;DHT22;74875;30.696;104.060;2024-02-04T05:05:12;16.90;67.40
49531;DHT22;74875;30.696;104.060;2024-02-04T05:07:41;16.90;52.90
49531;DHT22;74875;30.696;104.060;2024-02-04T05:10:08;16.90;52.90
49531;DHT22;74875;30.696;104.060;2024-02-04T05:12:35;16.30;55.90
49531;DHT22;74875;30.696;104.060;2024-02-04T05:15:03;16.50;67.10
49531;DHT22;74875;30.696;104.060;2024-02-04T05:17:30;16.80;67.40
49531;DHT22;74875;30.696;104.060;2024-02-04T05:19:58;17.00;61.90
49531;DHT22;74875;30.696;104.060;2024-02-04T05:22:28;17.50;68.00
49531;DHT22;74875;30.696;104.060;2024-02-04T05:24:55;17.00;52.90
49531;DHT22;74875;30.696;104.060;2024-02-04T05:27:22;17.00;52.80
49531;DHT22;74875;30.696;104.060;2024-02-04T05:29:49;16.90;67.20
49531;DHT22;74875;30.696;104.060;2024-02-04T05:32:16;17.00;52.80
49531;DHT22;74875;30.696;104.060;2024-02-04T05:34:43;16.90;67.20
49531;DHT22;74875;30.696;104.060;2024-02-04T05:37:10;17.70;66.30
49531;DHT22;74875;30.696;104.060;2024-02-04T05:39:37;16.80;62.00
49531;DHT22;74875;30.696;104.060;2024-02-04T05:42:04;16.40;68.20
49531;DHT22;74875;30.696;104.060;2024-02-04T05:44:32;16.90;68.20
49531;DHT22;74875;30.696;104.060;2024-02-04T05:46:59;17.00;52.80
49531;DHT22;74875;30.696;104.060;2024-02-04T05:49:26;16.90;64.70
49531;DHT22;74875;30.696;104.060;2024-02-04T05:51:53;17.00;52.70
49531;DHT22;74875;30.696;104.060;2024-02-04T05:54:20;17.00;52.70
49531;DHT22;74875;30.696;104.060;2024-02-04T05:56:47;16.30;67.10
49531;DHT22;74875;30.696;104.060;2024-02-04T05:59:14;17.10;67.50
49531;DHT22;74875;30.696;104.060;2024-02-04T06:01:42;17.00;52.90
49531;DHT22;74875;30.696;104.060;2024-02-04T06:04:11;17.00;52.90
49531;DHT22;74875;30.696;104.060;2024-02-04T06:06:39;17.50;67.70
49531;DHT22;74875;30.696;104.060;2024-02-04T06:09:06;17.00;53.00
49531;DHT22;74875;30.696;104.060;2024-02-04T06:11:37;16.90;53.10
49531;DHT22;74875;30.696;104.060;2024-02-04T06:14:04;16.50;59.00
49531;DHT22;74875;30.696;104.060;2024-02-04T06:16:31;16.80;67.90
49531;DHT22;74875;30.696;104.060;2024-02-04T06:19:00;17.00;59.80
49531;DHT22;74875;30.696;104.060;2024-02-04T06:21:27;16.90;53.20
49531;DHT22;74875;30.696;104.060;2024-02-04T06:23:54;16.40;67.80
49531;DHT22;74875;30.696;104.060;2024-02-04T06:26:22;16.70;67.90
49531;DHT22;74875;30.696;104.060;2024-02-04T06:28:49;17.00;65.80
49531;DHT22;74875;30.696;104.060;2024-02-04T06:31:17;16.90;65.20
49531;DHT22;74875;30.696;104.060;2024-02-04T06:33:44;16.90;67.80
49531;DHT22;74875;30.696;104.060;2024-02-04T06:36:12;16.70;56.50
49531;DHT22;74875;30.696;104.060;2024-02-04T06:38:39;16.70;53.30
49531;DHT22;74875;30.696;104.060;2024-02-04T06:41:06;16.70;60.60
49531;DHT22;74875;30.696;104.060;2024-02-04T06:43:33;16.80;66.50
49531;DHT22;74875;30.696;104.060;2024-02-04T06:46:00;16.70;67.40
49531;DHT22;74875;30.696;104.060;2024-02-04T06:48:27;16.70;67.70
49531;DHT22;74875;30.696;104.060;2024-02-04T06:50:54;16.70;53.50
49531;DHT22;74875;30.696;104.060;2024-02-04T06:53:21;16.60;68.10
49531;DHT22;74875;30.696;104.060;2024-02-04T06:55:48;16.30;61.10
49531;DHT22;74875;30.696;104.060;2024-02-04T06:58:15;16.10;68.70
49531;DHT22;74875;30.696;104.060;2024-02-04T07:00:43;16.60;66.70
49531;DHT22;74875;30.696;104.060;2024-02-04T07:03:10;16.60;53.90
49531;DHT22;74875;30.696;104.060;2024-02-04T07:05:37;16.70;68.70
49531;DHT22;74875;30.696;104.060;2024-02-04T07:10:31;16.70;68.90
49531;DHT22;74875;30.696;104.060;2024-02-04T07:12:58;16.10;68.30
49531;DHT22;74875;30.696;104.060;2024-02-04T07:15:25;16.50;68.70
49531;DHT22;74875;30.696;104.060;2024-02-04T07:17:52;16.00;69.00
49531;DHT22;74875;30.696;104.060;2024-02-04T07:20:19;16.00;68.80
49531;DHT22;74875;30.696;104.060;2024-02-04T07:22:47;16.50;54.50
49531;DHT22;74875;30.696;104.060;2024-02-04T07:25:14;16.50;54.40
49531;DHT22;74875;30.696;104.060;2024-02-04T07:27:41;16.60;69.10
49531;DHT22;74875;30.696;104.060;2024-02-04T07:30:08;16.50;54.30
49531;DHT22;74875;30.696;104.060;2024-02-04T07:32:36;16.40;61.50
49531;DHT22;74875;30.696;104.060;2024-02-04T07:35:04;15.90;69.50
49531;DHT22;74875;30.696;104.060;2024-02-04T07:37:32;16.10;68.20
49531;DHT22;74875;30.696;104.060;2024-02-04T07:40:00;16.40;54.10
49531;DHT22;74875;30.696;104.060;2024-02-04T07:42:28;16.40;54.40
49531;DHT22;74875;30.696;104.060;2024-02-04T07:44:55;16.40;54.50
49531;DHT22;74875;30.696;104.060;2024-02-04T07:47:22;16.40;54.50
49531;DHT22;74875;30.696;104.060;2024-02-04T07:49:50;16.50;58.70
49531;DHT22;74875;30.696;104.060;2024-02-04T07:52:17;17.20;69.50
49531;DHT22;74875;30.696;104.060;2024-02-04T07:54:45;16.40;69.00
49531;DHT22;74875;30.696;104.060;2024-02-04T07:57:12;15.80;59.30
49531;DHT22;74875;30.696;104.060;2024-02-04T07:59:40;16.40;61.60
49531;DHT22;74875;30.696;104.060;2024-02-04T08:02:07;15.90;70.30
49531;DHT22;74875;30.696;104.060;2024-02-04T08:04:34;16.40;54.70
49531;DHT22;74875;30.696;104.060;2024-02-04T08:07:01;16.20;69.40
49531;DHT22;74875;30.696;104.060;2024-02-04T08:09:28;16.20;54.80
49531;DHT22;74875;30.696;104.060;2024-02-04T08:14:22;15.70;70.40
49531;DHT22;74875;30.696;104.060;2024-02-04T08:16:49;16.50;59.00
49531;DHT22;74875;30.696;104.060;2024-02-04T08:19:17;16.30;55.00
49531;DHT22;74875;30.696;104.060;2024-02-04T08:21:44;16.30;55.00
49531;DHT22;74875;30.696;104.060;2024-02-04T08:24:14;16.40;69.70
49531;DHT22;74875;30.696;104.060;2024-02-04T08:26:41;15.90;69.30
49531;DHT22;74875;30.696;104.060;2024-02-04T08:29:08;15.90;55.60
49531;DHT22;74875;30.696;104.060;2024-02-04T08:34:02;16.20;55.10
49531;DHT22;74875;30.696;104.060;2024-02-04T08:36:30;16.20;55.20
49531;DHT22;74875;30.696;104.060;2024-02-04T08:38:57;16.80;71.40
49531;DHT22;74875;30.696;104.060;2024-02-04T08:41:25;16.00;69.50
49531;DHT22;74875;30.696;104.060;2024-02-04T08:43:52;16.10;70.10
49531;DHT22;74875;30.696;104.060;2024-02-04T08:46:20;16.20;70.60
49531;DHT22;74875;30.696;104.060;2024-02-04T08:48:47;16.10;55.50
49531;DHT22;74875;30.696;104.060;2024-02-04T08:51:16;16.10;55.50
49531;DHT22;74875;30.696;104.060;2024-02-04T08:53:44;16.20;55.50
49531;DHT22;74875;30.696;104.060;2024-02-04T08:56:11;16.10;56.70
49531;DHT22;74875;30.696;104.060;2024-02-04T08:58:38;16.90;70.90
49531;DHT22;74875;30.696;104.060;2024-02-04T09:01:06;16.10;55.60
49531;DHT22;74875;30.696;104.060;2024-02-04T09:03:33;16.10;70.50
49531;DHT22;74875;30.696;104.060;2024-02-04T09:06:00;16.10;55.70
49531;DHT22;74875;30.696;104.060;2024-02-04T09:08:27;16.00;69.10
49531;DHT22;74875;30.696;104.060;2024-02-04T09:10:54;16.00;55.70
49531;DHT22;74875;30.696;104.060;2024-02-04T09:13:21;16.20;58.90
49531;DHT22;74875;30.696;104.060;2024-02-04T09:15:50;15.80;55.50
49531;DHT22;74875;30.696;104.060;2024-02-04T09:18:17;15.60;70.20
49531;DHT22;74875;30.696;104.060;2024-02-04T09:20:44;16.20;62.60
49531;DHT22;74875;30.696;104.060;2024-02-04T09:23:11;16.20;70.90
49531;DHT22;74875;30.696;104.060;2024-02-04T09:25:39;15.90;55.70
49531;DHT22;74875;30.696;104.060;2024-02-04T09:28:06;16.00;55.80
49531;DHT22;74875;30.696;104.060;2024-02-04T09:30:33;15.90;55.70
49531;DHT22;74875;30.696;104.060;2024-02-04T09:33:00;15.60;71.10
49531;DHT22;74875;30.696;104.060;2024-02-04T09:35:30;15.80;70.60
49531;DHT22;74875;30.696;104.060;2024-02-04T09:37:57;15.50;71.20
49531;DHT22;74875;30.696;104.060;2024-02-04T09:40:24;15.90;55.90
49531;DHT22;74875;30.696;104.060;2024-02-04T09:42:52;15.40;57.50
49531;DHT22;74875;30.696;104.060;2024-02-04T09:45:20;15.50;63.80
49531;DHT22;74875;30.696;104.060;2024-02-04T09:47:48;16.00;71.90
49531;DHT22;74875;30.696;104.060;2024-02-04T09:50:16;16.70;56.90
49531;DHT22;74875;30.696;104.060;2024-02-04T09:52:48;15.80;70.80
49531;DHT22;74875;30.696;104.060;2024-02-04T09:55:17;16.00;71.40
49531;DHT22;74875;30.696;104.060;2024-02-04T09:57:45;15.80;58.90
49531;DHT22;74875;30.696;104.060;2024-02-04T10:00:14;15.90;56.20
49531;DHT22;74875;30.696;104.060;2024-02-04T10:02:41;15.50;56.40
49531;DHT22;74875;30.696;104.060;2024-02-04T10:05:09;16.00;69.80
49531;DHT22;74875;30.696;104.060;2024-02-04T10:07:37;15.70;72.50
49531;DHT22;74875;30.696;104.060;2024-02-04T10:10:06;15.90;56.40
49531;DHT22;74875;30.696;104.060;2024-02-04T10:12:33;15.50;72.00
49531;DHT22;74875;30.696;104.060;2024-02-04T10:15:02;15.60;58.70
49531;DHT22;74875;30.696;104.060;2024-02-04T10:17:31;15.90;56.40
49531;DHT22;74875;30.696;104.060;2024-02-04T10:20:00;16.70;73.20
49531;DHT22;74875;30.696;104.060;2024-02-04T10:22:27;15.80;72.40
49531;DHT22;74875;30.696;104.060;2024-02-04T10:25:08;15.80;56.50
49531;DHT22;74875;30.696;104.060;2024-02-04T10:27:38;15.60;71.50
49531;DHT22;74875;30.696;104.060;2024-02-04T10:30:06;15.40;71.60
49531;DHT22;74875;30.696;104.060;2024-02-04T10:32:34;16.70;59.50
49531;DHT22;74875;30.696;104.060;2024-02-04T10:35:02;15.80;56.60
49531;DHT22;74875;30.696;104.060;2024-02-04T10:37:29;15.80;56.60
49531;DHT22;74875;30.696;104.060;2024-02-04T10:39:56;15.90;71.80
49531;DHT22;74875;30.696;104.060;2024-02-04T10:42:26;15.60;71.30
49531;DHT22;74875;30.696;104.060;2024-02-04T10:44:54;15.50;71.90
49531;DHT22;74875;30.696;104.060;2024-02-04T10:47:31;15.40;71.50
49531;DHT22;74875;30.696;104.060;2024-02-04T10:49:59;15.80;56.70
49531;DHT22;74875;30.696;104.060;2024-02-04T10:52:38;15.50;71.30
49531;DHT22;74875;30.696;104.060;2024-02-04T10:55:10;15.80;56.70
49531;DHT22;74875;30.696;104.060;2024-02-04T10:57:41;16.50;70.70
49531;DHT22;74875;30.696;104.060;2024-02-04T11:00:09;15.80;56.70
49531;DHT22;74875;30.696;104.060;2024-02-04T11:02:38;15.80;56.80
49531;DHT22;74875;30.696;104.060;2024-02-04T11:05:09;15.70;56.80
49531;DHT22;74875;30.696;104.060;2024-02-04T11:07:37;15.80;56.80
49531;DHT22;74875;30.696;104.060;2024-02-04T11:10:04;15.80;56.90
49531;DHT22;74875;30.696;104.060;2024-02-04T11:12:33;15.40;71.60
49531;DHT22;74875;30.696;104.060;2024-02-04T11:15:06;15.70;56.80
49531;DHT22;74875;30.696;104.060;2024-02-04T11:20:40;15.40;72.00
49531;DHT22;74875;30.696;104.060;2024-02-04T11:25:51;15.20;72.00
49531;DHT22;74875;30.696;104.060;2024-02-04T11:28:25;15.70;56.90
49531;DHT22;74875;30.696;104.060;2024-02-04T11:30:52;15.80;72.30
49531;DHT22;74875;30.696;104.060;2024-02-04T11:33:21;15.70;62.50
49531;DHT22;74875;30.696;104.060;2024-02-04T11:36:04;15.70;73.10
49531;DHT22;74875;30.696;104.060;2024-02-04T11:38:36;15.60;71.70
49531;DHT22;74875;30.696;104.060;2024-02-04T11:41:04;15.80;72.00
49531;DHT22;74875;30.696;104.060;2024-02-04T11:43:34;15.80;59.60
49531;DHT22;74875;30.696;104.060;2024-02-04T11:46:05;15.70;57.00
49531;DHT22;74875;30.696;104.060;2024-02-04T11:48:35;15.70;57.00
49531;DHT22;74875;30.696;104.060;2024-02-04T11:51:06;15.90;58.80
49531;DHT22;74875;30.696;104.060;2024-02-04T11:53:34;15.20;72.60
49531;DHT22;74875;30.696;104.060;2024-02-04T11:56:01;16.50;60.00
49531;DHT22;74875;30.696;104.060;2024-02-04T11:58:29;15.70;57.00
49531;DHT22;74875;30.696;104.060;2024-02-04T12:00:58;15.50;61.70
49531;DHT22;74875;30.696;104.060;2024-02-04T12:03:34;15.50;72.90
49531;DHT22;74875;30.696;104.060;2024-02-04T12:06:03;15.60;57.20
49531;DHT22;74875;30.696;104.060;2024-02-04T12:08:32;12.80;55.50
49531;DHT22;74875;30.696;104.060;2024-02-04T12:11:01;16.20;72.50
49531;DHT22;74875;30.696;104.060;2024-02-04T12:13:29;15.80;72.70
49531;DHT22;74875;30.696;104.060;2024-02-04T12:16:00;15.80;58.70
49531;DHT22;74875;30.696;104.060;2024-02-04T12:18:30;15.70;73.30
49531;DHT22;74875;30.696;104.060;2024-02-04T12:20:57;15.70;57.10
49531;DHT22;74875;30.696;104.060;2024-02-04T12:23:24;15.60;57.00
49531;DHT22;74875;30.696;104.060;2024-02-04T12:25:53;15.40;72.60
49531;DHT22;74875;30.696;104.060;2024-02-04T12:28:20;15.50;66.50
49531;DHT22;74875;30.696;104.060;2024-02-04T12:30:54;15.60;57.20
49531;DHT22;74875;30.696;104.060;2024-02-04T12:33:26;15.40;73.40
49531;DHT22;74875;30.696;104.060;2024-02-04T12:35:53;15.20;72.40
49531;DHT22;74875;30.696;104.060;2024-02-04T12:38:22;15.70;73.50
49531;DHT22;74875;30.696;104.060;2024-02-04T12:40:52;15.20;72.20
49531;DHT22;74875;30.696;104.060;2024-02-04T12:43:19;15.60;63.20
49531;DHT22;74875;30.696;104.060;2024-02-04T12:45:47;15.50;72.20
49531;DHT22;74875;30.696;104.060;2024-02-04T12:48:15;15.60;57.20
49531;DHT22;74875;30.696;104.060;2024-02-04T12:50:44;15.60;72.60
49531;DHT22;74875;30.696;104.060;2024-02-04T12:53:12;15.60;57.30
49531;DHT22;74875;30.696;104.060;2024-02-04T12:55:39;15.90;72.40
49531;DHT22;74875;30.696;104.060;2024-02-04T12:58:08;15.60;57.30
49531;DHT22;74875;30.696;104.060;2024-02-04T13:00:36;15.60;57.30
49531;DHT22;74875;30.696;104.060;2024-02-04T13:03:04;15.60;57.30
49531;DHT22;74875;30.696;104.060;2024-02-04T13:05:32;15.40;72.80
49531;DHT22;74875;30.696;104.060;2024-02-04T13:08:00;15.60;57.40
49531;DHT22;74875;30.696;104.060;2024-02-04T13:10:34;15.60;57.30
49531;DHT22;74875;30.696;104.060;2024-02-04T13:15:42;15.50;57.40
49531;DHT22;74875;30.696;104.060;2024-02-04T13:18:13;15.60;57.40
49531;DHT22;74875;30.696;104.060;2024-02-04T13:20:43;15.10;72.70
49531;DHT22;74875;30.696;104.060;2024-02-04T13:23:12;15.50;57.40
49531;DHT22;74875;30.696;104.060;2024-02-04T13:25:39;15.50;57.40
49531;DHT22;74875;30.696;104.060;2024-02-04T13:28:06;15.40;72.40
49531;DHT22;74875;30.696;104.060;2024-02-04T13:30:33;15.10;72.10
49531;DHT22;74875;30.696;104.060;2024-02-04T13:33:00;15.70;72.90
49531;DHT22;74875;30.696;104.060;2024-02-04T13:35:28;15.50;57.00
49531;DHT22;74875;30.696;104.060;2024-02-04T13:37:56;15.50;72.20
49531;DHT22;74875;30.696;104.060;2024-02-04T13:40:24;15.60;72.80
49531;DHT22;74875;30.696;104.060;2024-02-04T13:42:51;15.40;66.50
49531;DHT22;74875;30.696;104.060;2024-02-04T13:45:18;15.50;56.90
49531;DHT22;74875;30.696;104.060;2024-02-04T13:47:47;15.40;72.30
49531;DHT22;74875;30.696;104.060;2024-02-04T13:50:14;15.30;72.10
49531;DHT22;74875;30.696;104.060;2024-02-04T13:52:41;15.40;56.80
49531;DHT22;74875;30.696;104.060;2024-02-04T13:55:09;15.60;72.90
49531;DHT22;74875;30.696;104.060;2024-02-04T13:57:36;15.40;56.80
49531;DHT22;74875;30.696;104.060;2024-02-04T14:00:04;15.40;56.80
49531;DHT22;74875;30.696;104.060;2024-02-04T14:02:33;16.10;72.40
49531;DHT22;74875;30.696;104.060;2024-02-04T14:05:01;15.40;56.80
49531;DHT22;74875;30.696;104.060;2024-02-04T14:07:28;15.40;56.70
49531;DHT22;74875;30.696;104.060;2024-02-04T14:09:55;15.40;61.30
49531;DHT22;74875;30.696;104.060;2024-02-04T14:12:22;15.40;56.80
49531;DHT22;74875;30.696;104.060;2024-02-04T14:14:51;15.40;72.60
49531;DHT22;74875;30.696;104.060;2024-02-04T14:17:20;15.50;65.00
49531;DHT22;74875;30.696;104.060;2024-02-04T14:19:47;15.20;63.60
49531;DHT22;74875;30.696;104.060;2024-02-04T14:22:17;15.40;57.00
49531;DHT22;74875;30.696;104.060;2024-02-04T14:24:45;15.80;73.30
49531;DHT22;74875;30.696;104.060;2024-02-04T14:27:12;15.50;72.60
49531;DHT22;74875;30.696;104.060;2024-02-04T14:29:40;15.40;66.70
49531;DHT22;74875;30.696;104.060;2024-02-04T14:32:07;15.40;72.60
49531;DHT22;74875;30.696;104.060;2024-02-04T14:34:35;15.60;58.30
49531;DHT22;74875;30.696;104.060;2024-02-04T14:37:02;15.50;72.70
49531;DHT22;74875;30.696;104.060;2024-02-04T14:39:30;15.40;72.60
49531;DHT22;74875;30.696;104.060;2024-02-04T14:42:00;15.50;71.90
49531;DHT22;74875;30.696;104.060;2024-02-04T14:44:27;15.20;73.30
49531;DHT22;74875;30.696;104.060;2024-02-04T14:46:55;15.60;73.40
49531;DHT22;74875;30.696;104.060;2024-02-04T14:49:22;15.60;71.80
49531;DHT22;74875;30.696;104.060;2024-02-04T14:51:49;15.50;73.40
49531;DHT22;74875;30.696;104.060;2024-02-04T14:54:16;15.40;67.80
49531;DHT22;74875;30.696;104.060;2024-02-04T14:56:43;15.40;73.90
49531;DHT22;74875;30.696;104.060;2024-02-04T14:59:13;15.90;74.00
49531;DHT22;74875;30.696;104.060;2024-02-04T15:01:44;15.60;72.90
49531;DHT22;74875;30.696;104.060;2024-02-04T15:04:15;15.40;72.80
49531;DHT22;74875;30.696;104.060;2024-02-04T15:06:42;15.40;57.50
49531;DHT22;74875;30.696;104.060;2024-02-04T15:09:10;15.40;57.60
49531;DHT22;74875;30.696;104.060;2024-02-04T15:11:38;15.50;73.40
49531;DHT22;74875;30.696;104.060;2024-02-04T15:14:05;15.50;71.40
49531;DHT22;74875;30.696;104.060;2024-02-04T15:16:35;15.50;65.40
49531;DHT22;74875;30.696;104.060;2024-02-04T15:19:06;15.50;57.60
49531;DHT22;74875;30.696;104.060;2024-02-04T15:21:33;15.40;72.90
49531;DHT22;74875;30.696;104.060;2024-02-04T15:24:01;15.40;57.60
49531;DHT22;74875;30.696;104.060;2024-02-04T15:26:34;15.50;65.90
49531;DHT22;74875;30.696;104.060;2024-02-04T15:29:05;15.50;73.10